OH88 weather

Roberts Airport
London, Ohio, United States

Public forecast

Using degrees Fahrenheit for public forecast. Weather courtesy of forecast.io.

Closest aviation weather report (METAR) to Roberts Airport

Closest report is Madison County Airport, 4.8 nm (8.9 km) N. Retrieved 2020/06/04 11:55 UTC (24 minutes ago):

KUYF 041155Z AUTO 18003KT 10SM SCT038 BKN044 20/19 A2987 RMK AO2

Closest aviation forecast (TAF) to Roberts Airport

Closest forecast is Rickenbacker International Airport, 25.1 nm (46.5 km) E. Retrieved 2020/06/04 12:27 UTC (0 seconds ago):

TAF KLCK 041121Z 0412/0512 18006KT P6SM SCT050 BKN100 FM041800 20008KT P6SM VCTS SCT050CB BKN100 FM042100 20008KT P6SM -SHRA SCT050 BKN120 FM050300 20004KT P6SM BKN120